sensor_id;sensor_type;location;lat;lon;timestamp;P1;durP1;ratioP1;P2;durP2;ratioP2
74892;SDS011;63446;56.272;43.922;2023-05-10T00:01:46;33.83;;;11.50;;
74892;SDS011;63446;56.272;43.922;2023-05-10T00:04:12;37.90;;;12.60;;
74892;SDS011;63446;56.272;43.922;2023-05-10T00:06:38;36.33;;;12.77;;
74892;SDS011;63446;56.272;43.922;2023-05-10T00:09:04;41.30;;;12.37;;
74892;SDS011;63446;56.272;43.922;2023-05-10T00:11:30;29.42;;;11.77;;
74892;SDS011;63446;56.272;43.922;2023-05-10T00:13:56;28.52;;;11.68;;
74892;SDS011;63446;56.272;43.922;2023-05-10T00:16:22;35.20;;;13.07;;
74892;SDS011;63446;56.272;43.922;2023-05-10T00:18:48;28.38;;;11.15;;
74892;SDS011;63446;56.272;43.922;2023-05-10T00:21:14;28.55;;;11.98;;
74892;SDS011;63446;56.272;43.922;2023-05-10T00:23:40;48.70;;;17.33;;
74892;SDS011;63446;56.272;43.922;2023-05-10T00:26:06;32.38;;;12.35;;
74892;SDS011;63446;56.272;43.922;2023-05-10T00:28:32;40.15;;;12.95;;
74892;SDS011;63446;56.272;43.922;2023-05-10T00:30:59;31.23;;;12.00;;
74892;SDS011;63446;56.272;43.922;2023-05-10T00:33:25;24.08;;;11.32;;
74892;SDS011;63446;56.272;43.922;2023-05-10T00:35:51;34.72;;;13.52;;
74892;SDS011;63446;56.272;43.922;2023-05-10T00:38:16;33.07;;;12.20;;
74892;SDS011;63446;56.272;43.922;2023-05-10T00:40:43;30.55;;;12.40;;
74892;SDS011;63446;56.272;43.922;2023-05-10T00:43:17;30.48;;;12.80;;
74892;SDS011;63446;56.272;43.922;2023-05-10T00:45:43;30.83;;;12.23;;
74892;SDS011;63446;56.272;43.922;2023-05-10T00:48:11;29.40;;;12.05;;
74892;SDS011;63446;56.272;43.922;2023-05-10T00:50:37;34.77;;;13.53;;
74892;SDS011;63446;56.272;43.922;2023-05-10T00:53:04;28.90;;;11.40;;
74892;SDS011;63446;56.272;43.922;2023-05-10T00:55:29;33.42;;;12.95;;
74892;SDS011;63446;56.272;43.922;2023-05-10T00:57:55;27.27;;;11.70;;
74892;SDS011;63446;56.272;43.922;2023-05-10T01:00:22;26.03;;;11.70;;
74892;SDS011;63446;56.272;43.922;2023-05-10T01:02:48;29.02;;;11.35;;
74892;SDS011;63446;56.272;43.922;2023-05-10T01:05:14;28.65;;;12.13;;
74892;SDS011;63446;56.272;43.922;2023-05-10T01:07:40;30.70;;;12.30;;
74892;SDS011;63446;56.272;43.922;2023-05-10T01:10:06;26.17;;;10.60;;
74892;SDS011;63446;56.272;43.922;2023-05-10T01:12:37;24.65;;;10.48;;
74892;SDS011;63446;56.272;43.922;2023-05-10T01:15:09;31.23;;;12.50;;
74892;SDS011;63446;56.272;43.922;2023-05-10T01:17:38;29.45;;;11.85;;
74892;SDS011;63446;56.272;43.922;2023-05-10T01:20:07;22.43;;;10.57;;
74892;SDS011;63446;56.272;43.922;2023-05-10T01:22:49;27.00;;;11.35;;
74892;SDS011;63446;56.272;43.922;2023-05-10T01:28:25;25.85;;;10.68;;
74892;SDS011;63446;56.272;43.922;2023-05-10T01:31:14;29.92;;;11.13;;
74892;SDS011;63446;56.272;43.922;2023-05-10T01:33:59;30.13;;;11.63;;
74892;SDS011;63446;56.272;43.922;2023-05-10T01:36:50;26.45;;;11.20;;
74892;SDS011;63446;56.272;43.922;2023-05-10T01:39:25;29.67;;;11.75;;
74892;SDS011;63446;56.272;43.922;2023-05-10T01:42:00;24.42;;;10.40;;
74892;SDS011;63446;56.272;43.922;2023-05-10T01:47:20;27.63;;;11.00;;
74892;SDS011;63446;56.272;43.922;2023-05-10T01:49:49;27.55;;;11.38;;
74892;SDS011;63446;56.272;43.922;2023-05-10T01:52:22;28.35;;;11.10;;
74892;SDS011;63446;56.272;43.922;2023-05-10T01:54:58;32.70;;;11.43;;
74892;SDS011;63446;56.272;43.922;2023-05-10T01:57:32;24.63;;;10.55;;
74892;SDS011;63446;56.272;43.922;2023-05-10T02:00:02;26.37;;;10.20;;
74892;SDS011;63446;56.272;43.922;2023-05-10T02:02:42;26.83;;;10.43;;
74892;SDS011;63446;56.272;43.922;2023-05-10T02:05:12;24.98;;;11.23;;
74892;SDS011;63446;56.272;43.922;2023-05-10T02:07:40;29.08;;;10.88;;
74892;SDS011;63446;56.272;43.922;2023-05-10T02:10:07;29.35;;;11.80;;
74892;SDS011;63446;56.272;43.922;2023-05-10T02:12:37;28.27;;;11.20;;
74892;SDS011;63446;56.272;43.922;2023-05-10T02:15:07;26.30;;;11.15;;
74892;SDS011;63446;56.272;43.922;2023-05-10T02:17:35;26.90;;;10.85;;
74892;SDS011;63446;56.272;43.922;2023-05-10T02:20:07;25.52;;;10.98;;
74892;SDS011;63446;56.272;43.922;2023-05-10T02:22:36;25.58;;;11.65;;
74892;SDS011;63446;56.272;43.922;2023-05-10T02:25:04;25.53;;;10.80;;
74892;SDS011;63446;56.272;43.922;2023-05-10T02:27:32;27.00;;;11.15;;
74892;SDS011;63446;56.272;43.922;2023-05-10T02:30:00;29.50;;;11.57;;
74892;SDS011;63446;56.272;43.922;2023-05-10T02:32:29;28.00;;;11.80;;
74892;SDS011;63446;56.272;43.922;2023-05-10T02:34:55;27.42;;;10.85;;
74892;SDS011;63446;56.272;43.922;2023-05-10T02:37:23;25.00;;;11.20;;
74892;SDS011;63446;56.272;43.922;2023-05-10T02:39:50;24.80;;;11.07;;
74892;SDS011;63446;56.272;43.922;2023-05-10T02:42:19;29.40;;;11.40;;
74892;SDS011;63446;56.272;43.922;2023-05-10T02:44:49;28.98;;;12.18;;
74892;SDS011;63446;56.272;43.922;2023-05-10T02:47:18;25.65;;;10.57;;
74892;SDS011;63446;56.272;43.922;2023-05-10T02:49:45;26.37;;;10.90;;
74892;SDS011;63446;56.272;43.922;2023-05-10T02:52:12;32.03;;;11.32;;
74892;SDS011;63446;56.272;43.922;2023-05-10T02:54:45;33.55;;;13.05;;
74892;SDS011;63446;56.272;43.922;2023-05-10T02:57:15;30.52;;;12.48;;
74892;SDS011;63446;56.272;43.922;2023-05-10T02:59:45;26.65;;;12.07;;
74892;SDS011;63446;56.272;43.922;2023-05-10T03:02:14;29.03;;;11.53;;
74892;SDS011;63446;56.272;43.922;2023-05-10T03:04:40;23.67;;;10.65;;
74892;SDS011;63446;56.272;43.922;2023-05-10T03:07:06;23.67;;;10.60;;
74892;SDS011;63446;56.272;43.922;2023-05-10T03:09:32;27.80;;;11.30;;
74892;SDS011;63446;56.272;43.922;2023-05-10T03:12:17;23.23;;;10.23;;
74892;SDS011;63446;56.272;43.922;2023-05-10T03:14:57;24.50;;;10.10;;
74892;SDS011;63446;56.272;43.922;2023-05-10T03:20:20;21.45;;;10.23;;
74892;SDS011;63446;56.272;43.922;2023-05-10T03:22:51;16.95;;;8.77;;
74892;SDS011;63446;56.272;43.922;2023-05-10T03:25:26;21.20;;;8.93;;
74892;SDS011;63446;56.272;43.922;2023-05-10T03:27:54;21.25;;;9.40;;
74892;SDS011;63446;56.272;43.922;2023-05-10T03:30:24;24.27;;;10.25;;
74892;SDS011;63446;56.272;43.922;2023-05-10T03:32:50;23.17;;;10.63;;
74892;SDS011;63446;56.272;43.922;2023-05-10T03:35:17;29.33;;;11.57;;
74892;SDS011;63446;56.272;43.922;2023-05-10T03:37:44;28.63;;;11.40;;
74892;SDS011;63446;56.272;43.922;2023-05-10T03:40:09;28.35;;;11.57;;
74892;SDS011;63446;56.272;43.922;2023-05-10T03:42:38;24.02;;;10.60;;
74892;SDS011;63446;56.272;43.922;2023-05-10T03:45:05;26.85;;;10.90;;
74892;SDS011;63446;56.272;43.922;2023-05-10T03:47:32;26.83;;;10.77;;
74892;SDS011;63446;56.272;43.922;2023-05-10T03:49:58;27.50;;;9.93;;
74892;SDS011;63446;56.272;43.922;2023-05-10T03:52:24;29.58;;;10.63;;
74892;SDS011;63446;56.272;43.922;2023-05-10T03:54:50;31.80;;;11.05;;
74892;SDS011;63446;56.272;43.922;2023-05-10T03:57:16;21.80;;;9.55;;
74892;SDS011;63446;56.272;43.922;2023-05-10T03:59:42;31.90;;;10.97;;
74892;SDS011;63446;56.272;43.922;2023-05-10T04:02:08;22.55;;;10.40;;
74892;SDS011;63446;56.272;43.922;2023-05-10T04:04:35;34.78;;;11.02;;
74892;SDS011;63446;56.272;43.922;2023-05-10T04:07:02;33.00;;;11.13;;
74892;SDS011;63446;56.272;43.922;2023-05-10T04:09:28;31.77;;;11.27;;
74892;SDS011;63446;56.272;43.922;2023-05-10T04:11:54;38.78;;;12.55;;
74892;SDS011;63446;56.272;43.922;2023-05-10T04:14:20;32.83;;;13.00;;
74892;SDS011;63446;56.272;43.922;2023-05-10T04:16:46;36.17;;;13.57;;
74892;SDS011;63446;56.272;43.922;2023-05-10T04:19:12;32.50;;;13.23;;
74892;SDS011;63446;56.272;43.922;2023-05-10T04:21:38;31.50;;;15.10;;
74892;SDS011;63446;56.272;43.922;2023-05-10T04:24:04;33.63;;;12.85;;
74892;SDS011;63446;56.272;43.922;2023-05-10T04:26:30;37.35;;;13.27;;
74892;SDS011;63446;56.272;43.922;2023-05-10T04:28:57;36.30;;;12.88;;
74892;SDS011;63446;56.272;43.922;2023-05-10T04:31:23;30.23;;;13.17;;
74892;SDS011;63446;56.272;43.922;2023-05-10T04:33:49;33.38;;;13.63;;
74892;SDS011;63446;56.272;43.922;2023-05-10T04:36:15;24.73;;;11.38;;
74892;SDS011;63446;56.272;43.922;2023-05-10T04:38:41;21.10;;;9.90;;
74892;SDS011;63446;56.272;43.922;2023-05-10T04:41:08;27.50;;;10.13;;
74892;SDS011;63446;56.272;43.922;2023-05-10T04:43:36;19.73;;;8.93;;
74892;SDS011;63446;56.272;43.922;2023-05-10T04:46:03;21.27;;;7.72;;
74892;SDS011;63446;56.272;43.922;2023-05-10T04:48:29;15.32;;;7.50;;
74892;SDS011;63446;56.272;43.922;2023-05-10T04:50:55;17.47;;;7.03;;
74892;SDS011;63446;56.272;43.922;2023-05-10T04:53:22;18.00;;;7.50;;
74892;SDS011;63446;56.272;43.922;2023-05-10T04:55:48;23.02;;;7.95;;
74892;SDS011;63446;56.272;43.922;2023-05-10T04:58:14;16.42;;;6.78;;
74892;SDS011;63446;56.272;43.922;2023-05-10T05:00:40;21.97;;;7.00;;
74892;SDS011;63446;56.272;43.922;2023-05-10T05:03:06;17.63;;;6.38;;
74892;SDS011;63446;56.272;43.922;2023-05-10T05:05:32;18.90;;;6.00;;
74892;SDS011;63446;56.272;43.922;2023-05-10T05:07:58;16.33;;;4.60;;
74892;SDS011;63446;56.272;43.922;2023-05-10T05:10:24;14.40;;;4.47;;
74892;SDS011;63446;56.272;43.922;2023-05-10T05:12:50;12.55;;;4.55;;
74892;SDS011;63446;56.272;43.922;2023-05-10T05:15:15;11.50;;;3.70;;
74892;SDS011;63446;56.272;43.922;2023-05-10T05:17:42;8.13;;;3.40;;
74892;SDS011;63446;56.272;43.922;2023-05-10T05:20:09;10.05;;;3.03;;
74892;SDS011;63446;56.272;43.922;2023-05-10T05:22:36;8.83;;;3.90;;
74892;SDS011;63446;56.272;43.922;2023-05-10T05:25:02;13.13;;;4.50;;
74892;SDS011;63446;56.272;43.922;2023-05-10T05:27:32;10.48;;;5.88;;
74892;SDS011;63446;56.272;43.922;2023-05-10T05:29:59;15.25;;;5.88;;
74892;SDS011;63446;56.272;43.922;2023-05-10T05:32:25;9.70;;;6.40;;
74892;SDS011;63446;56.272;43.922;2023-05-10T05:34:51;10.23;;;6.80;;
74892;SDS011;63446;56.272;43.922;2023-05-10T05:37:18;9.63;;;7.63;;
74892;SDS011;63446;56.272;43.922;2023-05-10T05:39:45;15.90;;;8.70;;
74892;SDS011;63446;56.272;43.922;2023-05-10T05:42:11;10.75;;;7.30;;
74892;SDS011;63446;56.272;43.922;2023-05-10T05:44:39;10.80;;;7.03;;
74892;SDS011;63446;56.272;43.922;2023-05-10T05:47:05;11.52;;;8.57;;
74892;SDS011;63446;56.272;43.922;2023-05-10T05:49:31;9.88;;;8.75;;
74892;SDS011;63446;56.272;43.922;2023-05-10T05:51:59;10.45;;;9.25;;
74892;SDS011;63446;56.272;43.922;2023-05-10T05:54:29;10.23;;;9.15;;
74892;SDS011;63446;56.272;43.922;2023-05-10T05:56:56;8.40;;;6.93;;
74892;SDS011;63446;56.272;43.922;2023-05-10T05:59:23;9.32;;;7.00;;
74892;SDS011;63446;56.272;43.922;2023-05-10T06:01:50;9.73;;;6.25;;
74892;SDS011;63446;56.272;43.922;2023-05-10T06:04:16;6.55;;;4.40;;
74892;SDS011;63446;56.272;43.922;2023-05-10T06:06:42;5.28;;;3.58;;
74892;SDS011;63446;56.272;43.922;2023-05-10T06:09:08;7.33;;;4.20;;
74892;SDS011;63446;56.272;43.922;2023-05-10T06:11:35;6.63;;;3.67;;
74892;SDS011;63446;56.272;43.922;2023-05-10T06:14:03;7.82;;;3.80;;
74892;SDS011;63446;56.272;43.922;2023-05-10T06:16:33;5.75;;;2.22;;
74892;SDS011;63446;56.272;43.922;2023-05-10T06:18:59;5.65;;;2.20;;
74892;SDS011;63446;56.272;43.922;2023-05-10T06:21:25;4.33;;;2.33;;
74892;SDS011;63446;56.272;43.922;2023-05-10T06:23:51;6.72;;;2.47;;
74892;SDS011;63446;56.272;43.922;2023-05-10T06:26:17;8.05;;;2.63;;
74892;SDS011;63446;56.272;43.922;2023-05-10T06:28:43;6.03;;;1.93;;
74892;SDS011;63446;56.272;43.922;2023-05-10T06:31:09;6.30;;;2.20;;
74892;SDS011;63446;56.272;43.922;2023-05-10T06:33:37;5.93;;;2.20;;
74892;SDS011;63446;56.272;43.922;2023-05-10T06:36:03;6.17;;;1.90;;
74892;SDS011;63446;56.272;43.922;2023-05-10T06:38:29;5.60;;;1.80;;
74892;SDS011;63446;56.272;43.922;2023-05-10T06:40:55;8.23;;;1.73;;
74892;SDS011;63446;56.272;43.922;2023-05-10T06:43:21;4.45;;;1.48;;
74892;SDS011;63446;56.272;43.922;2023-05-10T06:45:47;5.13;;;1.48;;
74892;SDS011;63446;56.272;43.922;2023-05-10T06:48:13;6.73;;;1.60;;
74892;SDS011;63446;56.272;43.922;2023-05-10T06:50:39;3.97;;;1.60;;
74892;SDS011;63446;56.272;43.922;2023-05-10T06:53:05;5.63;;;1.80;;
74892;SDS011;63446;56.272;43.922;2023-05-10T06:55:31;9.83;;;2.67;;
74892;SDS011;63446;56.272;43.922;2023-05-10T06:57:58;9.20;;;3.78;;
74892;SDS011;63446;56.272;43.922;2023-05-10T07:00:23;7.95;;;2.10;;
74892;SDS011;63446;56.272;43.922;2023-05-10T07:02:49;5.63;;;2.00;;
74892;SDS011;63446;56.272;43.922;2023-05-10T07:05:16;3.88;;;1.77;;
74892;SDS011;63446;56.272;43.922;2023-05-10T07:07:43;4.65;;;1.90;;
74892;SDS011;63446;56.272;43.922;2023-05-10T07:10:09;5.63;;;2.00;;
74892;SDS011;63446;56.272;43.922;2023-05-10T07:12:35;6.00;;;1.55;;
74892;SDS011;63446;56.272;43.922;2023-05-10T07:15:01;6.27;;;1.97;;
74892;SDS011;63446;56.272;43.922;2023-05-10T07:17:31;3.80;;;1.67;;
74892;SDS011;63446;56.272;43.922;2023-05-10T07:19:59;3.60;;;1.52;;
74892;SDS011;63446;56.272;43.922;2023-05-10T07:22:26;3.85;;;1.55;;
74892;SDS011;63446;56.272;43.922;2023-05-10T07:24:53;4.50;;;1.50;;
74892;SDS011;63446;56.272;43.922;2023-05-10T07:27:19;4.22;;;1.30;;
74892;SDS011;63446;56.272;43.922;2023-05-10T07:29:44;5.13;;;1.30;;
74892;SDS011;63446;56.272;43.922;2023-05-10T07:32:10;3.53;;;1.70;;
74892;SDS011;63446;56.272;43.922;2023-05-10T07:34:36;4.32;;;1.50;;
74892;SDS011;63446;56.272;43.922;2023-05-10T07:37:02;7.65;;;1.70;;
74892;SDS011;63446;56.272;43.922;2023-05-10T07:39:28;5.07;;;1.50;;
74892;SDS011;63446;56.272;43.922;2023-05-10T07:41:54;4.30;;;1.80;;
74892;SDS011;63446;56.272;43.922;2023-05-10T07:44:21;4.38;;;1.58;;
74892;SDS011;63446;56.272;43.922;2023-05-10T07:46:47;4.03;;;1.23;;
74892;SDS011;63446;56.272;43.922;2023-05-10T07:49:14;2.70;;;1.10;;
74892;SDS011;63446;56.272;43.922;2023-05-10T07:51:40;4.22;;;1.38;;
74892;SDS011;63446;56.272;43.922;2023-05-10T07:54:06;7.03;;;1.60;;
74892;SDS011;63446;56.272;43.922;2023-05-10T07:56:33;6.57;;;1.73;;
74892;SDS011;63446;56.272;43.922;2023-05-10T07:59:01;3.77;;;1.50;;
74892;SDS011;63446;56.272;43.922;2023-05-10T08:01:33;5.22;;;1.70;;
74892;SDS011;63446;56.272;43.922;2023-05-10T08:04:00;4.32;;;1.65;;
74892;SDS011;63446;56.272;43.922;2023-05-10T08:06:29;4.25;;;1.65;;
74892;SDS011;63446;56.272;43.922;2023-05-10T08:08:55;6.07;;;1.92;;
74892;SDS011;63446;56.272;43.922;2023-05-10T08:11:22;5.80;;;1.67;;
74892;SDS011;63446;56.272;43.922;2023-05-10T08:13:48;3.97;;;1.42;;
74892;SDS011;63446;56.272;43.922;2023-05-10T08:16:15;3.90;;;1.60;;
74892;SDS011;63446;56.272;43.922;2023-05-10T08:18:43;6.32;;;1.52;;
74892;SDS011;63446;56.272;43.922;2023-05-10T08:21:10;5.10;;;1.70;;
74892;SDS011;63446;56.272;43.922;2023-05-10T08:23:37;4.80;;;1.60;;
74892;SDS011;63446;56.272;43.922;2023-05-10T08:26:03;7.35;;;1.60;;
74892;SDS011;63446;56.272;43.922;2023-05-10T08:28:29;6.85;;;1.50;;
74892;SDS011;63446;56.272;43.922;2023-05-10T08:30:55;4.97;;;1.40;;
74892;SDS011;63446;56.272;43.922;2023-05-10T08:33:22;7.27;;;1.50;;
74892;SDS011;63446;56.272;43.922;2023-05-10T08:35:47;6.45;;;1.45;;
74892;SDS011;63446;56.272;43.922;2023-05-10T08:38:13;8.02;;;1.48;;
74892;SDS011;63446;56.272;43.922;2023-05-10T08:40:43;3.67;;;1.42;;
74892;SDS011;63446;56.272;43.922;2023-05-10T08:43:11;6.03;;;1.70;;
74892;SDS011;63446;56.272;43.922;2023-05-10T08:45:41;3.30;;;1.30;;
74892;SDS011;63446;56.272;43.922;2023-05-10T08:48:10;3.53;;;1.50;;
74892;SDS011;63446;56.272;43.922;2023-05-10T08:50:38;4.20;;;1.60;;
74892;SDS011;63446;56.272;43.922;2023-05-10T08:53:06;5.45;;;1.70;;
74892;SDS011;63446;56.272;43.922;2023-05-10T08:55:34;6.33;;;1.43;;
74892;SDS011;63446;56.272;43.922;2023-05-10T08:58:02;3.83;;;1.50;;
74892;SDS011;63446;56.272;43.922;2023-05-10T09:00:29;3.80;;;1.60;;
74892;SDS011;63446;56.272;43.922;2023-05-10T09:02:57;3.97;;;1.30;;
74892;SDS011;63446;56.272;43.922;2023-05-10T09:05:23;6.60;;;1.52;;
74892;SDS011;63446;56.272;43.922;2023-05-10T09:07:50;4.13;;;1.30;;
74892;SDS011;63446;56.272;43.922;2023-05-10T09:10:15;4.65;;;1.40;;
74892;SDS011;63446;56.272;43.922;2023-05-10T09:12:42;3.55;;;1.10;;
74892;SDS011;63446;56.272;43.922;2023-05-10T09:15:10;4.10;;;1.33;;
74892;SDS011;63446;56.272;43.922;2023-05-10T09:17:38;2.78;;;1.13;;
74892;SDS011;63446;56.272;43.922;2023-05-10T09:20:05;4.13;;;1.27;;
74892;SDS011;63446;56.272;43.922;2023-05-10T09:22:33;4.15;;;1.50;;
74892;SDS011;63446;56.272;43.922;2023-05-10T09:25:07;7.18;;;1.42;;
74892;SDS011;63446;56.272;43.922;2023-05-10T09:27:35;5.67;;;1.47;;
74892;SDS011;63446;56.272;43.922;2023-05-10T09:30:02;4.82;;;1.25;;
74892;SDS011;63446;56.272;43.922;2023-05-10T09:35:10;3.00;;;1.15;;
74892;SDS011;63446;56.272;43.922;2023-05-10T09:37:41;7.28;;;1.63;;
74892;SDS011;63446;56.272;43.922;2023-05-10T09:40:12;5.83;;;1.30;;
74892;SDS011;63446;56.272;43.922;2023-05-10T09:42:41;3.65;;;1.27;;
74892;SDS011;63446;56.272;43.922;2023-05-10T09:45:08;4.80;;;1.50;;
74892;SDS011;63446;56.272;43.922;2023-05-10T09:47:34;3.28;;;1.15;;
74892;SDS011;63446;56.272;43.922;2023-05-10T09:50:02;2.95;;;1.20;;
74892;SDS011;63446;56.272;43.922;2023-05-10T09:52:51;6.10;;;1.30;;
74892;SDS011;63446;56.272;43.922;2023-05-10T09:55:20;5.07;;;1.50;;
74892;SDS011;63446;56.272;43.922;2023-05-10T09:57:59;3.33;;;1.48;;
74892;SDS011;63446;56.272;43.922;2023-05-10T10:00:26;4.25;;;1.23;;
74892;SDS011;63446;56.272;43.922;2023-05-10T10:02:56;5.78;;;1.45;;
74892;SDS011;63446;56.272;43.922;2023-05-10T10:05:31;3.13;;;1.33;;
74892;SDS011;63446;56.272;43.922;2023-05-10T10:08:00;3.88;;;1.50;;
74892;SDS011;63446;56.272;43.922;2023-05-10T10:10:29;6.20;;;1.42;;
74892;SDS011;63446;56.272;43.922;2023-05-10T10:12:56;2.70;;;1.20;;
74892;SDS011;63446;56.272;43.922;2023-05-10T10:15:23;8.15;;;1.48;;
74892;SDS011;63446;56.272;43.922;2023-05-10T10:17:50;5.07;;;1.40;;
74892;SDS011;63446;56.272;43.922;2023-05-10T10:20:17;6.93;;;1.60;;
74892;SDS011;63446;56.272;43.922;2023-05-10T10:22:44;7.43;;;1.50;;
74892;SDS011;63446;56.272;43.922;2023-05-10T10:25:14;5.95;;;1.65;;
74892;SDS011;63446;56.272;43.922;2023-05-10T10:27:45;7.05;;;1.40;;
74892;SDS011;63446;56.272;43.922;2023-05-10T10:33:18;5.63;;;1.50;;
74892;SDS011;63446;56.272;43.922;2023-05-10T10:36:05;4.50;;;1.00;;
74892;SDS011;63446;56.272;43.922;2023-05-10T10:49:31;2.95;;;1.23;;
74892;SDS011;63446;56.272;43.922;2023-05-10T10:55:08;3.92;;;1.30;;
74892;SDS011;63446;56.272;43.922;2023-05-10T11:03:04;5.57;;;1.40;;
74892;SDS011;63446;56.272;43.922;2023-05-10T11:08:12;4.32;;;1.50;;
74892;SDS011;63446;56.272;43.922;2023-05-10T11:16:09;3.75;;;1.50;;
74892;SDS011;63446;56.272;43.922;2023-05-10T11:18:38;5.35;;;1.30;;
74892;SDS011;63446;56.272;43.922;2023-05-10T11:21:07;4.65;;;1.40;;
74892;SDS011;63446;56.272;43.922;2023-05-10T11:26:07;3.58;;;1.40;;
74892;SDS011;63446;56.272;43.922;2023-05-10T11:28:43;4.55;;;1.20;;
74892;SDS011;63446;56.272;43.922;2023-05-10T11:31:10;4.68;;;1.27;;
74892;SDS011;63446;56.272;43.922;2023-05-10T11:33:45;13.35;;;1.50;;
74892;SDS011;63446;56.272;43.922;2023-05-10T11:36:19;4.13;;;1.33;;
74892;SDS011;63446;56.272;43.922;2023-05-10T11:39:15;3.42;;;1.20;;
74892;SDS011;63446;56.272;43.922;2023-05-10T11:41:40;2.80;;;0.90;;
74892;SDS011;63446;56.272;43.922;2023-05-10T11:44:06;4.67;;;1.37;;
74892;SDS011;63446;56.272;43.922;2023-05-10T11:46:34;5.75;;;1.40;;
74892;SDS011;63446;56.272;43.922;2023-05-10T11:49:02;4.95;;;1.15;;
74892;SDS011;63446;56.272;43.922;2023-05-10T11:51:33;3.95;;;1.23;;
74892;SDS011;63446;56.272;43.922;2023-05-10T11:54:08;3.17;;;1.17;;
74892;SDS011;63446;56.272;43.922;2023-05-10T11:56:38;5.00;;;1.20;;
74892;SDS011;63446;56.272;43.922;2023-05-10T11:59:05;3.58;;;1.20;;
74892;SDS011;63446;56.272;43.922;2023-05-10T12:01:31;5.18;;;1.30;;
74892;SDS011;63446;56.272;43.922;2023-05-10T12:03:57;6.83;;;1.10;;
74892;SDS011;63446;56.272;43.922;2023-05-10T12:06:29;7.28;;;1.52;;
74892;SDS011;63446;56.272;43.922;2023-05-10T12:08:56;3.70;;;1.45;;
74892;SDS011;63446;56.272;43.922;2023-05-10T12:11:26;4.05;;;1.10;;
74892;SDS011;63446;56.272;43.922;2023-05-10T12:13:53;4.80;;;1.20;;
74892;SDS011;63446;56.272;43.922;2023-05-10T12:16:21;3.10;;;1.23;;
74892;SDS011;63446;56.272;43.922;2023-05-10T12:18:49;3.75;;;1.33;;
74892;SDS011;63446;56.272;43.922;2023-05-10T12:21:16;4.10;;;1.27;;
74892;SDS011;63446;56.272;43.922;2023-05-10T12:23:42;4.07;;;1.35;;
74892;SDS011;63446;56.272;43.922;2023-05-10T12:26:11;3.25;;;1.10;;
74892;SDS011;63446;56.272;43.922;2023-05-10T12:28:37;3.33;;;1.10;;
74892;SDS011;63446;56.272;43.922;2023-05-10T12:31:08;4.35;;;1.35;;
74892;SDS011;63446;56.272;43.922;2023-05-10T12:36:10;4.82;;;1.30;;
74892;SDS011;63446;56.272;43.922;2023-05-10T12:38:38;5.57;;;1.67;;
74892;SDS011;63446;56.272;43.922;2023-05-10T12:41:06;4.67;;;1.30;;
74892;SDS011;63446;56.272;43.922;2023-05-10T12:43:34;6.22;;;2.80;;
74892;SDS011;63446;56.272;43.922;2023-05-10T12:48:36;6.72;;;1.48;;
74892;SDS011;63446;56.272;43.922;2023-05-10T12:51:03;4.20;;;1.30;;
74892;SDS011;63446;56.272;43.922;2023-05-10T12:53:30;5.50;;;1.30;;
74892;SDS011;63446;56.272;43.922;2023-05-10T12:55:56;4.13;;;1.30;;
74892;SDS011;63446;56.272;43.922;2023-05-10T12:58:22;3.67;;;1.20;;
74892;SDS011;63446;56.272;43.922;2023-05-10T13:00:49;3.15;;;1.13;;
74892;SDS011;63446;56.272;43.922;2023-05-10T13:03:17;5.25;;;1.20;;
74892;SDS011;63446;56.272;43.922;2023-05-10T13:05:43;4.23;;;1.60;;
74892;SDS011;63446;56.272;43.922;2023-05-10T13:08:09;8.55;;;2.30;;
74892;SDS011;63446;56.272;43.922;2023-05-10T13:10:35;6.07;;;1.20;;
74892;SDS011;63446;56.272;43.922;2023-05-10T13:13:01;4.78;;;1.38;;
74892;SDS011;63446;56.272;43.922;2023-05-10T13:15:28;4.50;;;1.40;;
74892;SDS011;63446;56.272;43.922;2023-05-10T13:17:54;5.22;;;1.30;;
74892;SDS011;63446;56.272;43.922;2023-05-10T13:20:20;5.53;;;1.00;;
74892;SDS011;63446;56.272;43.922;2023-05-10T13:22:46;4.30;;;1.02;;
74892;SDS011;63446;56.272;43.922;2023-05-10T13:25:12;4.10;;;1.10;;
74892;SDS011;63446;56.272;43.922;2023-05-10T13:27:39;3.33;;;1.10;;
74892;SDS011;63446;56.272;43.922;2023-05-10T13:30:06;3.47;;;1.30;;
74892;SDS011;63446;56.272;43.922;2023-05-10T13:32:33;10.18;;;1.30;;
74892;SDS011;63446;56.272;43.922;2023-05-10T13:34:59;3.93;;;1.13;;
74892;SDS011;63446;56.272;43.922;2023-05-10T13:37:25;3.65;;;1.40;;
74892;SDS011;63446;56.272;43.922;2023-05-10T13:39:51;5.38;;;1.48;;
74892;SDS011;63446;56.272;43.922;2023-05-10T13:42:17;5.30;;;1.10;;
74892;SDS011;63446;56.272;43.922;2023-05-10T13:44:44;6.00;;;1.10;;
74892;SDS011;63446;56.272;43.922;2023-05-10T13:47:09;5.55;;;1.20;;
74892;SDS011;63446;56.272;43.922;2023-05-10T13:49:36;4.22;;;1.63;;
74892;SDS011;63446;56.272;43.922;2023-05-10T13:52:02;3.60;;;1.10;;
74892;SDS011;63446;56.272;43.922;2023-05-10T13:54:33;4.15;;;1.20;;
74892;SDS011;63446;56.272;43.922;2023-05-10T13:57:01;3.38;;;1.10;;
74892;SDS011;63446;56.272;43.922;2023-05-10T13:59:28;3.67;;;1.08;;
74892;SDS011;63446;56.272;43.922;2023-05-10T14:01:54;5.00;;;1.15;;
74892;SDS011;63446;56.272;43.922;2023-05-10T14:04:20;3.83;;;1.50;;
74892;SDS011;63446;56.272;43.922;2023-05-10T14:06:46;4.53;;;1.85;;
74892;SDS011;63446;56.272;43.922;2023-05-10T14:09:12;6.53;;;1.98;;
74892;SDS011;63446;56.272;43.922;2023-05-10T14:11:39;8.02;;;1.63;;
74892;SDS011;63446;56.272;43.922;2023-05-10T14:14:09;11.37;;;3.50;;
74892;SDS011;63446;56.272;43.922;2023-05-10T14:16:35;4.50;;;1.38;;
74892;SDS011;63446;56.272;43.922;2023-05-10T14:19:01;4.63;;;1.40;;
74892;SDS011;63446;56.272;43.922;2023-05-10T14:21:27;6.20;;;1.40;;
74892;SDS011;63446;56.272;43.922;2023-05-10T14:23:55;4.50;;;1.80;;
74892;SDS011;63446;56.272;43.922;2023-05-10T14:26:21;7.32;;;2.22;;
74892;SDS011;63446;56.272;43.922;2023-05-10T14:28:47;8.15;;;1.30;;
74892;SDS011;63446;56.272;43.922;2023-05-10T14:31:13;6.15;;;1.10;;
74892;SDS011;63446;56.272;43.922;2023-05-10T14:33:39;4.40;;;1.77;;
74892;SDS011;63446;56.272;43.922;2023-05-10T14:36:06;3.78;;;1.50;;
74892;SDS011;63446;56.272;43.922;2023-05-10T14:38:32;4.18;;;1.45;;
74892;SDS011;63446;56.272;43.922;2023-05-10T14:40:58;5.57;;;1.83;;
74892;SDS011;63446;56.272;43.922;2023-05-10T14:43:24;5.63;;;1.70;;
74892;SDS011;63446;56.272;43.922;2023-05-10T14:45:50;3.63;;;1.50;;
74892;SDS011;63446;56.272;43.922;2023-05-10T14:48:15;7.65;;;2.30;;
74892;SDS011;63446;56.272;43.922;2023-05-10T14:50:43;4.73;;;1.30;;
74892;SDS011;63446;56.272;43.922;2023-05-10T14:55:59;4.20;;;1.02;;
74892;SDS011;63446;56.272;43.922;2023-05-10T14:58:27;5.05;;;1.20;;
74892;SDS011;63446;56.272;43.922;2023-05-10T15:00:56;5.20;;;1.50;;
74892;SDS011;63446;56.272;43.922;2023-05-10T15:03:22;6.70;;;2.57;;
74892;SDS011;63446;56.272;43.922;2023-05-10T15:05:48;9.65;;;1.80;;
74892;SDS011;63446;56.272;43.922;2023-05-10T15:08:14;4.03;;;1.33;;
74892;SDS011;63446;56.272;43.922;2023-05-10T15:10:40;7.40;;;3.83;;
74892;SDS011;63446;56.272;43.922;2023-05-10T15:13:07;5.23;;;2.00;;
74892;SDS011;63446;56.272;43.922;2023-05-10T15:15:33;5.57;;;2.33;;
74892;SDS011;63446;56.272;43.922;2023-05-10T15:17:59;14.32;;;4.78;;
74892;SDS011;63446;56.272;43.922;2023-05-10T15:20:25;13.23;;;2.10;;
74892;SDS011;63446;56.272;43.922;2023-05-10T15:22:51;7.22;;;1.55;;